This is the latest recevied weather packets stored in our database for station/object SP3WRO-2. If no packets are shown the sender has not sent any weather packets the latest 10 day(s).
| Time | Temp. | Humidity | Pressure | Rain* | Wind** | Luminosity | Snow |
|---|---|---|---|---|---|---|---|
| 1787672375 | 22.22° C | 50% | 1015.5 hPa | 4.83 mm | - | 94 W/m² | - |
| 1787671474 | 22.22° C | 48% | 1015.5 hPa | 4.83 mm | - | 63 W/m² | - |
| 1787670573 | 22.78° C | 48% | 1015.4 hPa | 4.83 mm | - | 241 W/m² | - |
| 1787669672 | 22.78° C | 47% | 1015.3 hPa | 4.83 mm | - | 290 W/m² | - |
| 1787668772 | 21.67° C | 52% | 1015.3 hPa | 4.83 mm | - | 327 W/m² | - |
| 1787667871 | 22.22° C | 50% | 1015.3 hPa | 4.83 mm | - | 392 W/m² | - |
| 1787666970 | 22.78° C | 48% | 1015.3 hPa | 4.83 mm | - | 457 W/m² | - |
| 1787666069 | 21.67° C | 50% | 1015.3 hPa | 4.83 mm | - | 113 W/m² | - |
| 1787665168 | 21.67° C | 51% | 1015.3 hPa | 4.83 mm | - | 141 W/m² | - |
| 1787664267 | 22.78° C | 49% | 1015.3 hPa | 4.83 mm | - | 522 W/m² | - |
| 1787663366 | 22.78° C | 51% | 1015.3 hPa | 4.83 mm | - | 589 W/m² | - |
| 1787662465 | 22.78° C | 49% | 1015.5 hPa | 4.83 mm | - | 608 W/m² | - |
| 1787661564 | 22.78° C | 50% | 1015.7 hPa | 4.83 mm | - | 641 W/m² | - |
| 1787660663 | 22.22° C | 52% | 1015.7 hPa | 4.83 mm | - | 632 W/m² | - |
| 1787659761 | 22.22° C | 55% | 1015.8 hPa | 4.83 mm | - | 712 W/m² | - |
| 1787658859 | 22.22° C | 56% | 1015.9 hPa | 4.83 mm | - | 674 W/m² | - |
| 1787657958 | 21.67° C | 60% | 1016.1 hPa | 4.83 mm | - | 691 W/m² | - |
| 1787657056 | 20.56° C | 64% | 1016.3 hPa | 4.83 mm | - | 413 W/m² | - |
| 1787656155 | 21.11° C | 63% | 1016.4 hPa | 4.83 mm | - | 776 W/m² | - |
| 1787655252 | 21.11° C | 65% | 1016.5 hPa | 4.83 mm | - | 769 W/m² | - |
| 1787654350 | 21.11° C | 62% | 1016.6 hPa | 4.83 mm | - | 806 W/m² | - |
| 1787653450 | 21.67° C | 63% | 1016.8 hPa | 4.83 mm | - | 671 W/m² | - |
| 1787652549 | 21.11° C | 71% | 1017 hPa | 4.83 mm | - | 206 W/m² | - |
| 1787651648 | 20° C | 73% | 1017.1 hPa | 4.83 mm | - | 464 W/m² | - |
| 1787650747 | 20° C | 72% | 1017 hPa | 4.83 mm | - | 535 W/m² | - |
* Rain latest 24 hours (hover to see other rain measurements)
** Current wind speed in m/s (hover to see current wind gust speed)